Home > Products > Valid Products > TAF

000
FTUS43 KGRR 181100
TAFMKG
TAF
KMKG 181140Z 1812/1912 06008KT P6SM BKN025
     FM182000 34006KT P6SM SCT050
     FM190000 VRB05KT P6SM SKC
     FM190600 VRB03KT 4SM BR SKC=



000
FTUS43 KGRR 181100
TAFAZO
TAF
KAZO 181140Z 1812/1912 06005KT P6SM SCT025
     FM181800 04006KT P6SM SCT050
     FM190000 VRB05KT P6SM SKC
     FM190600 VRB03KT 4SM BR SKC=



000
FTUS43 KGRR 181100
TAFBTL
TAF
KBTL 181140Z 1812/1912 05005KT P6SM SCT025
      TEMPO 1812/1813 2SM BR SCT004
     FM181800 04006KT P6SM SCT050
     FM190000 VRB05KT P6SM SKC
     FM190600 VRB03KT 4SM BR SKC=



000
FTUS43 KGRR 181100
TAFJXN
TAF
KJXN 181140Z 1812/1912 00000KT P6SM SKC
      TEMPO 1812/1813 2SM BR SCT004
     FM181400 05004KT P6SM BKN025
     FM181800 03006KT P6SM SCT250
     FM190000 VRB05KT P6SM SKC
     FM190600 VRB03KT 4SM BR SKC=



000
FTUS43 KGRR 181100
TAFGRR
TAF
KGRR 181140Z 1812/1912 06004KT P6SM BKN050
     FM181230 08008KT P6SM BKN025
     FM181800 06009KT P6SM BKN050
     FM182100 07006KT P6SM FEW250
     FM190000 VRB05KT P6SM SKC
     FM190600 VRB03KT 4SM BR SKC=



000
FTUS43 KGRR 181100
TAFLAN
TAF
KLAN 181140Z 1812/1912 VRB03KT P6SM SCT015
     FM181300 04007KT P6SM BKN025
     FM181800 06008KT P6SM BKN035
     FM182100 04006KT P6SM SCT050
     FM190000 VRB05KT P6SM SKC
     FM190600 VRB03KT 4SM BR SKC=



000
FTUS43 KGRR 181000 AAA
TAFMKG
TAF AMD
KMKG 181041Z 1811/1906 06008KT P6SM BKN025
     FM182000 34006KT P6SM SCT050
     FM190000 VRB05KT P6SM SKC=



000
FTUS43 KGRR 181000 AAA
TAFGRR
TAF AMD
KGRR 181010Z 1810/1906 VRB03KT P6SM SKC
     FM181100 06004KT P6SM BKN050
     FM181200 08008KT P6SM BKN025
     FM181800 06009KT P6SM BKN050
     FM182100 07006KT P6SM FEW250
     FM190000 VRB05KT P6SM SKC=



000
FTUS43 KGRR 181000 AAB
TAFLAN
TAF AMD
KLAN 181009Z 1810/1906 00000KT 2SM BR BKN035
     FM181300 04007KT P6SM BKN025
     FM181800 06008KT P6SM BKN035
     FM182100 04006KT P6SM SCT050
     FM190000 VRB05KT P6SM SKC=



000
FTUS43 KGRR 180800 AAA
TAFLAN
TAF AMD
KLAN 180859Z 1809/1906 00000KT 4SM BR SKC
     FM181600 04007KT P6SM BKN025
     FM181800 06008KT P6SM BKN035
     FM182100 04006KT P6SM SCT050
     FM190000 VRB05KT P6SM SKC=



000
FTUS43 KGRR 180800 AAB
TAFAZO
TAF AMD
KAZO 180858Z 1809/1906 00000KT 4SM BR SKC
     FM181400 06005KT P6SM SCT025
     FM181800 04006KT P6SM SCT050
     FM190000 VRB05KT P6SM SKC=



000
FTUS43 KGRR 180500 AAA
TAFAZO
TAF AMD
KAZO 180550Z 1806/1906 00000KT 1SM BR SKC
     FM181400 06005KT P6SM SCT025
     FM181800 04006KT P6SM SCT050
     FM190000 VRB05KT P6SM SKC=



000
FTUS43 KGRR 180500
TAFJXN
TAF
KJXN 180540Z 1806/1906 00000KT P6SM SKC
     FM181500 05004KT P6SM BKN025
     FM181800 03006KT P6SM SCT250
     FM190000 VRB05KT P6SM SKC=



000
FTUS43 KGRR 180500
TAFGRR
TAF
KGRR 180540Z 1806/1906 VRB03KT P6SM SKC
     FM181200 06004KT P6SM BKN050
     FM181500 08008KT P6SM BKN025
     FM181800 06009KT P6SM BKN050
     FM182100 07006KT P6SM FEW250
     FM190000 VRB05KT P6SM SKC=



000
FTUS43 KGRR 180500
TAFAZO
TAF
KAZO 180540Z 1806/1906 00000KT P6SM SKC
     FM180900 00000KT 4SM BR SKC
     FM181400 06005KT P6SM SCT025
     FM181800 04006KT P6SM SCT050
     FM190000 VRB05KT P6SM SKC=



000
FTUS43 KGRR 180500
TAFLAN
TAF
KLAN 180540Z 1806/1906 00000KT P6SM SKC
     FM181100 02003KT 4SM BR SCT025
     FM181600 04007KT P6SM BKN025
     FM181800 06008KT P6SM BKN035
     FM182100 04006KT P6SM SCT050
     FM190000 VRB05KT P6SM SKC=



000
FTUS43 KGRR 180500
TAFBTL
TAF
KBTL 180540Z 1806/1906 00000KT P6SM SKC
     FM181500 05005KT P6SM SCT025
     FM181800 04006KT P6SM SCT050
     FM190000 VRB05KT P6SM SKC=



000
FTUS43 KGRR 180500
TAFMKG
TAF
KMKG 180540Z 1806/1906 VRB03KT P6SM SKC
     FM181200 04004KT P6SM BKN050
     FM181400 06008KT P6SM BKN025
     FM182000 34006KT P6SM SCT050
     FM190000 VRB05KT P6SM SKC=



000
FTUS43 KGRR 172300
TAFJXN
TAF
KJXN 172324Z 1800/1824 00000KT P6SM SKC
     FM181500 05004KT 4SM BR BKN025
     FM181800 03006KT P6SM SCT250=



000
FTUS43 KGRR 172300
TAFLAN
TAF
KLAN 172324Z 1800/1824 29006KT P6SM SKC
     FM180200 00000KT P6SM SKC
     FM181200 02003KT 4SM BR OVC007
     FM181600 04007KT P6SM BKN025
     FM181800 06008KT P6SM BKN035
     FM182100 04006KT P6SM SCT050=



000
FTUS43 KGRR 172300
TAFGRR
TAF
KGRR 172324Z 1800/1824 26007KT P6SM FEW045
     FM180300 VRB03KT P6SM SKC
     FM181200 06004KT P6SM BKN050
     FM181500 08008KT P6SM OVC015
     FM181800 06009KT P6SM BKN050
     FM182100 07006KT P6SM FEW250=



000
FTUS43 KGRR 172300
TAFBTL
TAF
KBTL 172324Z 1800/1824 31009KT P6SM FEW060
     FM180300 00000KT P6SM SKC
     FM181500 05005KT P6SM SCT025
     FM181800 04006KT P6SM SCT050=



000
FTUS43 KGRR 172300
TAFAZO
TAF
KAZO 172324Z 1800/1824 31009KT P6SM FEW050
     FM180300 00000KT P6SM SKC
     FM180900 00000KT 4SM BR SKC
     FM181500 06005KT P6SM SCT025
     FM181800 04006KT P6SM SCT050=



000
FTUS43 KGRR 172300
TAFMKG
TAF
KMKG 172324Z 1800/1824 24008KT P6SM FEW035 FEW250
     FM180200 VRB03KT P6SM SKC
     FM181200 04004KT P6SM BKN050
     FM181400 06008KT P6SM BKN025
     FM182000 34006KT P6SM SCT050=



000
FTUS43 KGRR 171700
TAFMKG
TAF
KMKG 171720Z 1718/1818 25007KT P6SM SCT040
     FM181200 04004KT P6SM BKN025
     FM181500 04006KT P6SM BKN035=



000
FTUS43 KGRR 171700
TAFLAN
TAF
KLAN 171720Z 1718/1818 25006KT P6SM SCT040
     FM181000 04006KT 6SM BR BKN009
     FM181500 04006KT P6SM BKN035=



000
FTUS43 KGRR 171700
TAFAZO
TAF
KAZO 171720Z 1718/1818 25007KT P6SM SCT040
     FM181500 04006KT P6SM BKN035=



000
FTUS43 KGRR 171700
TAFGRR
TAF
KGRR 171720Z 1718/1818 25007KT P6SM SCT040
     FM181200 06006KT P6SM BKN025
     FM181500 04006KT P6SM BKN035=



000
FTUS43 KGRR 171700
TAFJXN
TAF
KJXN 171720Z 1718/1818 25005KT P6SM SCT040
     FM181100 04006KT 6SM BR BKN015
     FM181600 04006KT P6SM BKN035=



000
FTUS43 KGRR 171700
TAFBTL
TAF
KBTL 171720Z 1718/1818 25007KT P6SM SCT040
     FM181500 04006KT P6SM BKN035=



000
FTUS43 KGRR 171100
TAFGRR
TAF
KGRR 171140Z 1712/1812 25007KT P6SM SCT040
     FM180600 04004KT P6SM BKN025=



000
FTUS43 KGRR 171100
TAFMKG
TAF
KMKG 171140Z 1712/1812 25007KT P6SM SCT040
     FM180600 04004KT P6SM BKN025=



000
FTUS43 KGRR 171100
TAFJXN
TAF
KJXN 171140Z 1712/1812 25006KT P6SM SCT040=



000
FTUS43 KGRR 171100
TAFLAN
TAF
KLAN 171140Z 1712/1812 25006KT P6SM SCT040=



000
FTUS43 KGRR 171100
TAFBTL
TAF
KBTL 171140Z 1712/1812 25007KT P6SM SCT040=



000
FTUS43 KGRR 171100
TAFAZO
TAF
KAZO 171140Z 1712/1812 25007KT P6SM SCT040
     FM180900 04004KT P6SM BKN025=



000
FTUS43 KGRR 170800 AAA
TAFAZO
TAF AMD
KAZO 170852Z 1709/1806 VRB03KT 1SM BR VV003
     FM171400 25008KT P6SM SCT040
     FM172300 VRB03KT P6SM SKC=



000
FTUS43 KGRR 170500
TAFJXN
TAF
KJXN 170540Z 1706/1806 VRB03KT P6SM SKC
     FM171400 25008KT P6SM SCT040
     FM172300 VRB03KT P6SM SKC=



000
FTUS43 KGRR 170500
TAFGRR
TAF
KGRR 170540Z 1706/1806 VRB03KT P6SM SKC
     FM171400 25008KT P6SM SCT040
     FM172300 VRB03KT P6SM SKC=



000
FTUS43 KGRR 170500
TAFMKG
TAF
KMKG 170540Z 1706/1806 VRB03KT P6SM SKC
     FM171400 25010KT P6SM SCT040
     FM172300 VRB03KT P6SM SKC=



000
FTUS43 KGRR 170500
TAFLAN
TAF
KLAN 170540Z 1706/1806 VRB03KT P6SM SKC
     FM171400 25008KT P6SM SCT040
     FM172300 VRB03KT P6SM SKC=



000
FTUS43 KGRR 170500
TAFBTL
TAF
KBTL 170540Z 1706/1806 VRB03KT P6SM SKC
     FM171400 25008KT P6SM SCT040
     FM172300 VRB03KT P6SM SKC=



000
FTUS43 KGRR 170500
TAFAZO
TAF
KAZO 170540Z 1706/1806 VRB03KT P6SM SKC
     FM171400 25008KT P6SM SCT040
     FM172300 VRB03KT P6SM SKC=



000
FTUS43 KGRR 162300
TAFMKG
TAF
KMKG 162323Z 1700/1724 27008KT P6SM FEW035
     FM170100 VRB03KT P6SM SKC
     FM171400 25010KT P6SM SCT040=



000
FTUS43 KGRR 162300
TAFAZO
TAF
KAZO 162323Z 1700/1724 31008KT P6SM BKN050
     FM170100 VRB03KT P6SM SKC
     FM171400 25008KT P6SM SCT040=



000
FTUS43 KGRR 162300
TAFJXN
TAF
KJXN 162323Z 1700/1724 VRB03KT P6SM FEW050
     FM170100 VRB03KT P6SM SKC
     FM171400 25008KT P6SM SCT040=



000
FTUS43 KGRR 162300
TAFGRR
TAF
KGRR 162323Z 1700/1724 27014KT P6SM FEW045
     FM170100 VRB03KT P6SM SKC
     FM171400 25008KT P6SM SCT040=



000
FTUS43 KGRR 162300
TAFBTL
TAF
KBTL 162323Z 1700/1724 30006KT P6SM BKN045
     FM170100 VRB03KT P6SM SKC
     FM171400 25008KT P6SM SCT040=



000
FTUS43 KGRR 162300
TAFLAN
TAF
KLAN 162323Z 1700/1724 29007KT P6SM BKN050 BKN060
     FM170100 VRB03KT P6SM SKC
     FM171400 25008KT P6SM SCT040=



000
FTUS43 KGRR 161700
TAFGRR
TAF
KGRR 161740Z 1618/1718 27005KT P6SM SCT040
     FM170100 VRB03KT P6SM SKC
     FM171400 25005KT P6SM SCT040=



000
FTUS43 KGRR 161700
TAFMKG
TAF
KMKG 161740Z 1618/1718 29008KT P6SM SKC
     FM170100 VRB03KT P6SM SKC
     FM171400 22010KT P6SM SCT040=



000
FTUS43 KGRR 161700
TAFJXN
TAF
KJXN 161740Z 1618/1718 31005KT P6SM SCT045
     FM170100 VRB03KT P6SM SKC
     FM171400 25005KT P6SM SCT040=



000
FTUS43 KGRR 161700
TAFLAN
TAF
KLAN 161740Z 1618/1718 29005KT P6SM BKN035
     FM170100 VRB03KT P6SM SKC
     FM171400 25005KT P6SM SCT040=



000
FTUS43 KGRR 161700
TAFAZO
TAF
KAZO 161740Z 1618/1718 32005KT P6SM BKN040
     FM170100 VRB03KT P6SM SKC
     FM171400 25005KT P6SM SCT040=



000
FTUS43 KGRR 161700
TAFBTL
TAF
KBTL 161740Z 1618/1718 31005KT P6SM BKN040
     FM170100 VRB03KT P6SM SKC
     FM171400 25005KT P6SM SCT040=



000
FTUS43 KGRR 161500 AAB
TAFJXN
TAF AMD
KJXN 161545Z 1616/1712 31005KT P6SM SCT015=



000
FTUS43 KGRR 161500 AAC
TAFAZO
TAF AMD
KAZO 161545Z 1616/1712 31006KT P6SM SCT020
     FM161630 30006KT P6SM BKN020
     FM161900 29006KT P6SM SCT025=



000
FTUS43 KGRR 161500 AAC
TAFMKG
TAF AMD
KMKG 161545Z 1616/1712 29007KT P6SM SKC=



000
FTUS43 KGRR 161500 AAB
TAFLAN
TAF AMD
KLAN 161545Z 1616/1712 29006KT P6SM SCT015
     FM161730 30006KT P6SM BKN015
     FM162100 29006KT P6SM SCT025=



000
FTUS43 KGRR 161500 AAB
TAFBTL
TAF AMD
KBTL 161545Z 1616/1712 30006KT P6SM SCT020
     FM161700 30006KT P6SM BKN020
     FM161930 29006KT P6SM SCT025=



000
FTUS43 KGRR 161500 AAC
TAFGRR
TAF AMD
KGRR 161545Z 1616/1712 29006KT P6SM BKN017
     FM161800 29006KT P6SM SCT025=



000
FTUS43 KGRR 161400 AAA
TAFJXN
TAF AMD
KJXN 161404Z 1614/1712 VRB03KT P6SM BKN006
     FM161500 31006KT P6SM SCT035=



000
FTUS43 KGRR 161400 AAB
TAFGRR
TAF AMD
KGRR 161404Z 1614/1712 29006KT P6SM SCT030=



000
FTUS43 KGRR 161400 AAA
TAFBTL
TAF AMD
KBTL 161404Z 1614/1712 30006KT P6SM SCT035=



000
FTUS43 KGRR 161400 AAA
TAFLAN
TAF AMD
KLAN 161404Z 1614/1712 VRB03KT 1/4SM FG VV002
     FM161430 30005KT 4SM BR BKN004
     FM161500 29006KT P6SM SCT030=



000
FTUS43 KGRR 161400 AAB
TAFMKG
TAF AMD
KMKG 161404Z 1614/1712 28007KT P6SM SCT030=



000
FTUS43 KGRR 161400 AAB
TAFAZO
TAF AMD
KAZO 161404Z 1614/1712 31006KT P6SM SCT035=



000
FTUS43 KGRR 161300 AAA
TAFMKG
TAF AMD
KMKG 161304Z 1613/1712 VRB03KT P6SM FEW008 SCT030
     FM161600 28007KT P6SM SCT030=



000
FTUS43 KGRR 161200 AAA
TAFAZO
TAF AMD
KAZO 161226Z 1612/1712 VRB03KT P6SM FEW008 SCT012
      TEMPO 1612/1614 4SM BR BKN008
     FM161600 31006KT P6SM SCT035=



000
FTUS43 KGRR 161200 AAA
TAFGRR
TAF AMD
KGRR 161218Z 1612/1712 VRB03KT 3/4SM BR SCT002
     FM161400 32004KT 2SM BR SCT012 SCT025
     FM161430 30005KT 4SM BR SCT012 BKN025
     FM161530 29006KT P6SM SCT030=



000
FTUS43 KGRR 161100 RRA
TAFJXN
TAF
KJXN 161142Z 1612/1712 VRB03KT P6SM OVC005
     FM161400 33004KT 4SM BR BKN012
     FM161500 32005KT P6SM SCT012 BKN025
     FM161600 31006KT P6SM SCT035=



000
FTUS43 KGRR 161100 RRA
TAFMKG
TAF
KMKG 161142Z 1612/1712 VRB03KT 2SM BR SCT002
     FM161330 34004KT 2SM BR BKN008
     FM161500 32005KT 4SM BR BKN012
     FM161600 28007KT P6SM SCT030=



000
FTUS43 KGRR 161100 RRA
TAFAZO
TAF
KAZO 161142Z 1612/1712 VRB03KT 3SM BR SCT008
     FM161230 VRB03KT 1/2SM FG OVC002
     FM161400 VRB04KT 2SM BR BKN012
     FM161430 32005KT 4SM BR SCT012 BKN025
     FM161600 31006KT P6SM SCT035=



000
FTUS43 KGRR 161100 RRA
TAFBTL
TAF
KBTL 161142Z 1612/1712 VRB03KT 1/4SM FG OVC002
     FM161400 33004KT 2SM BR BKN012
     FM161430 31005KT 4SM BR SCT012 BKN025
     FM161600 30006KT P6SM SCT035=



000
FTUS43 KGRR 161100 RRA
TAFGRR
TAF
KGRR 161142Z 1612/1712 VRB03KT 1/4SM FG OVC002
     FM161400 32004KT 2SM BR BKN012
     FM161430 30005KT 4SM BR SCT012 BKN025
     FM161530 29006KT P6SM SCT030=



000
FTUS43 KGRR 161100 RRA
TAFLAN
TAF
KLAN 161142Z 1612/1712 32003KT 1/4SM FG OVC002
     FM161330 31004KT 2SM BR BKN008
     FM161420 30005KT 4SM BR SCT012 BKN025
     FM161600 29006KT P6SM SCT035=



000
FTUS43 KGRR 161000 AAD
TAFAZO
TAF AMD
KAZO 161052Z 1611/1706 VRB03KT 3SM BR SCT002
      TEMPO 1611/1614 VRB03KT 1/4SM FG OVC002
     FM161400 VRB04KT 2SM BR BKN012
     FM161500 32005KT 4SM BR SCT012 BKN025
     FM161600 31006KT P6SM SCT035=



000
FTUS43 KGRR 161000 AAB
TAFJXN
TAF AMD
KJXN 161044Z 1611/1706 35003KT P6SM BKN005
      TEMPO 1611/1612 1/4SM FG BKN001
     FM161200 VRB03KT 1/4SM FG OVC004
     FM161400 33004KT 2SM BR BKN012
     FM161500 32005KT 4SM BR SCT012 BKN025
     FM161600 31006KT P6SM SCT035=



000
FTUS43 KGRR 160900 AAB
TAFMKG
TAF AMD
KMKG 160939Z 1610/1706 VRB03KT 4SM BR SCT002
      TEMPO 1611/1613 1/4SM FG OVC002
     FM161400 34004KT 2SM BR BKN008
     FM161500 32005KT 4SM BR BKN012
     FM161600 28007KT P6SM SCT030=



000
FTUS43 KGRR 160900 AAC
TAFAZO
TAF AMD
KAZO 160938Z 1610/1706 VRB03KT 3SM BR SCT008
     FM161030 VRB03KT 1/4SM FG OVC002
     FM161400 VRB04KT 2SM BR BKN012
     FM161500 32005KT 4SM BR SCT012 BKN025
     FM161600 31006KT P6SM SCT035=



000
FTUS43 KGRR 160900 AAC
TAFBTL
TAF AMD
KBTL 160937Z 1610/1706 34003KT P6SM SCT035
     FM161040 VRB03KT 1/4SM FG OVC002
     FM161400 33004KT 2SM BR BKN012
     FM161500 31005KT 4SM BR SCT012 BKN025
     FM161600 30006KT P6SM SCT035=



000
FTUS43 KGRR 160900 AAD
TAFLAN
TAF AMD
KLAN 160936Z 1610/1706 32003KT 4SM BR BKN040
     FM161015 VRB03KT 1/4SM FG OVC002
     FM161400 31004KT 2SM BR BKN008
     FM161500 30005KT 4SM BR SCT012 BKN025
     FM161600 29006KT P6SM SCT035=



000
FTUS43 KGRR 160800 AAA
TAFJXN
TAF AMD
KJXN 160844Z 1609/1706 35003KT P6SM SCT005 BKN015
      TEMPO 1609/1610 4SM BR BKN005
     FM161000 VRB03KT 1/4SM FG OVC004
     FM161400 33004KT 2SM BR BKN012
     FM161500 32005KT 4SM BR SCT012 BKN025
     FM161600 31006KT P6SM SCT035=



000
FTUS43 KGRR 160800 AAA
TAFMKG
TAF AMD
KMKG 160843Z 1609/1706 VRB03KT 2SM BR SCT002
      TEMPO 1609/1613 1/4SM FG OVC002
     FM161400 34004KT 2SM BR BKN008
     FM161500 32005KT 4SM BR BKN012
     FM161600 28007KT P6SM SCT030=



000
FTUS43 KGRR 160800 AAC
TAFLAN
TAF AMD
KLAN 160842Z 1609/1706 32003KT 4SM BR BKN040
     FM160930 VRB03KT 1/4SM FG OVC002
     FM161400 31004KT 2SM BR BKN008
     FM161500 30005KT 4SM BR SCT012 BKN025
     FM161600 29006KT P6SM SCT035=



000
FTUS43 KGRR 160800 AAB
TAFBTL
TAF AMD
KBTL 160842Z 1609/1706 34003KT P6SM SCT035
     FM160930 VRB03KT 1/4SM FG OVC002
     FM161400 33004KT 2SM BR BKN012
     FM161500 31005KT 4SM BR SCT012 BKN025
     FM161600 30006KT P6SM SCT035=



000
FTUS43 KGRR 160800 AAB
TAFAZO
TAF AMD
KAZO 160841Z 1609/1706 VRB03KT P6SM SCT008
     FM160900 VRB03KT 1/4SM FG OVC002
     FM161400 VRB04KT 2SM BR BKN012
     FM161500 32005KT 4SM BR SCT012 BKN025
     FM161600 31006KT P6SM SCT035=



000
FTUS43 KGRR 160800 AAB
TAFLAN
TAF AMD
KLAN 160813Z 1608/1706 32003KT 4SM BR BKN040
     FM160900 VRB03KT 1/4SM FG OVC002
     FM161400 31004KT 2SM BR BKN008
     FM161500 30005KT 4SM BR SCT012 BKN025
     FM161600 29006KT P6SM SCT035=



000
FTUS43 KGRR 160700 AAA
TAFLAN
TAF AMD
KLAN 160715Z 1607/1706 32003KT P6SM BKN020
     FM160730 VRB03KT P6SM SKC
     FM160800 VRB03KT 1/4SM FG OVC002
     FM161400 31004KT 2SM BR BKN008
     FM161500 30005KT 4SM BR SCT012 BKN025
     FM161600 29006KT P6SM SCT035=



000
FTUS43 KGRR 160700 AAA
TAFAZO
TAF AMD
KAZO 160714Z 1607/1706 01005KT P6SM OVC028
     FM160730 VRB03KT P6SM SKC
     FM160800 VRB03KT 1/4SM FG OVC002
     FM161400 VRB04KT 2SM BR BKN012
     FM161500 32005KT 4SM BR SCT012 BKN025
     FM161600 31006KT P6SM SCT035=



000
FTUS43 KGRR 160600 AAA
TAFGRR
TAF AMD
KGRR 160640Z 1607/1706 VRB03KT 1/4SM FG OVC002
     FM161400 32004KT 2SM BR BKN012
     FM161500 30005KT 4SM BR SCT012 BKN025
     FM161600 29006KT P6SM SCT030=



000
FTUS43 KGRR 160600 AAA
TAFBTL
TAF AMD
KBTL 160626Z 1606/1706 34003KT P6SM OVC009
     FM160800 VRB03KT 4SM BR SCT004
     FM160900 VRB03KT 1/4SM FG OVC002
     FM161400 33004KT 2SM BR BKN012
     FM161500 31005KT 4SM BR SCT012 BKN025
     FM161600 30006KT P6SM SCT035=



000
FTUS43 KGRR 160500
TAFBTL
TAF
KBTL 160540Z 1606/1706 34005KT P6SM OVC011
     FM160800 VRB03KT 4SM BR SCT004
     FM160900 VRB03KT 1/4SM FG OVC002
     FM161400 33004KT 2SM BR BKN012
     FM161500 31005KT 4SM BR SCT012 BKN025
     FM161600 30006KT P6SM SCT035=



000
FTUS43 KGRR 160500
TAFLAN
TAF
KLAN 160540Z 1606/1706 32003KT P6SM BKN006
     FM160700 VRB03KT P6SM SKC
     FM160730 VRB03KT 2SM BR SCT004
     FM160800 VRB03KT 1/4SM FG OVC004
     FM161400 31004KT 2SM BR BKN012
     FM161500 30005KT 4SM BR SCT012 BKN025
     FM161600 29006KT P6SM SCT035=



000
FTUS43 KGRR 160500
TAFMKG
TAF
KMKG 160540Z 1606/1706 VRB03KT 1/4SM FG OVC002
     FM161400 34004KT 2SM BR BKN008
     FM161500 32005KT 4SM BR BKN012
     FM161600 28007KT P6SM SCT030=



000
FTUS43 KGRR 160500
TAFJXN
TAF
KJXN 160540Z 1606/1706 35003KT P6SM BKN006
     FM160900 VRB03KT P6SM SKC
     FM160930 VRB03KT 2SM BR SCT004
     FM161000 VRB03KT 1/4SM FG OVC004
     FM161400 33004KT 2SM BR BKN012
     FM161500 32005KT 4SM BR SCT012 BKN025
     FM161600 31006KT P6SM SCT035=



000
FTUS43 KGRR 160500
TAFAZO
TAF
KAZO 160540Z 1606/1706 01005KT P6SM OVC009
     FM160700 VRB03KT 2SM BR OVC004
     FM160800 VRB03KT 1/4SM FG OVC004
     FM161400 VRB04KT 2SM BR BKN012
     FM161500 32005KT 4SM BR SCT012 BKN025
     FM161600 31006KT P6SM SCT035=



000
FTUS43 KGRR 160500
TAFGRR
TAF
KGRR 160540Z 1606/1706 33004KT 4SM BR SKC
     FM160700 VRB03KT 2SM BR SCT004
     FM160800 VRB03KT 1/4SM FG OVC002
     FM161400 32004KT 2SM BR BKN012
     FM161500 30005KT 4SM BR SCT012 BKN025
     FM161600 29006KT P6SM SCT030=



000
FTUS43 KGRR 160500 AAF
TAFJXN
TAF AMD
KJXN 160519Z 1605/1624 35003KT P6SM BKN006
     FM160900 VRB03KT P6SM SKC
     FM160930 VRB03KT 2SM BR SCT004
     FM161000 VRB03KT 1/4SM FG OVC004
     FM161400 34004KT 2SM BR BKN012
     FM161500 34005KT 4SM BR SCT012 BKN025
     FM161600 32006KT P6SM SCT035=



000
FTUS43 KGRR 160500 AAE
TAFBTL
TAF AMD
KBTL 160517Z 1605/1624 34005KT P6SM OVC011
     FM160800 VRB03KT 4SM BR SCT004
     FM160900 VRB03KT 1/4SM FG OVC002
     FM161400 34004KT 2SM BR BKN012
     FM161500 34005KT 4SM BR SCT012 BKN025
     FM161600 32006KT P6SM SCT035=



000
FTUS43 KGRR 160400 AAB
TAFGRR
TAF AMD
KGRR 160410Z 1604/1624 33006KT P6SM OVC022
     FM160500 VRB03KT 4SM BR SKC
     FM160600 VRB03KT 2SM BR SCT004
     FM160700 VRB03KT 1/4SM FG OVC004
     FM161400 34004KT 2SM BR BKN012
     FM161500 34005KT 4SM BR SCT012 BKN025
     FM161600 32006KT P6SM SCT035=



000
FTUS43 KGRR 160400 AAB
TAFGRR
TAF AMD
KGRR 160410Z 1604/1624 33006KT P6SM OVC022
     FM160500 VRB03KT 4SM BR SKC
     FM160600 VRB03KT 2SM BR SCT004
     FM160700 VRB03KT 1/4SM FG OVC004
     FM161400 34004KT 2SM BR BKN012
     FM161500 34005KT 4SM BR SCT012 BKN025
     FM161600 32006KT P6SM SCT035=



000
FTUS43 KGRR 160300 AAE
TAFJXN
TAF AMD
KJXN 160344Z 1604/1624 VRB03KT 1SM BR SCT004
     FM160500 VRB03KT 1/4SM FG OVC002
     FM161400 34004KT 2SM BR BKN012
     FM161500 34005KT 4SM BR SCT012 BKN025
     FM161600 32006KT P6SM SCT035=



000
FTUS43 KGRR 160300 AAC
TAFMKG
TAF AMD
KMKG 160343Z 1604/1624 VRB03KT 1/4SM FG OVC004
     FM161400 34004KT 2SM BR BKN012
     FM161500 34005KT 4SM BR SCT012 BKN025
     FM161600 32006KT P6SM SCT035=



000
FTUS43 KGRR 160300 AAD
TAFJXN
TAF AMD
KJXN 160316Z 1603/1624 VRB03KT P6SM SCT015 BKN040
     FM160600 VRB03KT P6SM SKC
     FM160700 VRB03KT 2SM BR SCT004
     FM160800 VRB03KT 1/4SM FG OVC002
     FM161400 34004KT 2SM BR BKN012
     FM161500 34005KT 4SM BR SCT012 BKN025
     FM161600 32006KT P6SM SCT035=



000
FTUS43 KGRR 160300 AAD
TAFLAN
TAF AMD
KLAN 160313Z 1603/1624 35003KT P6SM BKN015
     FM160500 VRB03KT P6SM SKC
     FM160600 VRB03KT 2SM BR SCT004
     FM160700 VRB03KT 1/4SM FG OVC004
     FM161400 34004KT 2SM BR BKN012
     FM161500 34005KT 4SM BR SCT012 BKN025
     FM161600 32006KT P6SM SCT035=



000
FTUS43 KGRR 160300 AAA
TAFGRR
TAF AMD
KGRR 160312Z 1603/1624 33003KT P6SM SCT050
     FM160400 VRB03KT 4SM BR SKC
     FM160500 VRB03KT 2SM BR SCT004
     FM160700 VRB03KT 1/4SM FG OVC004
     FM161400 34004KT 2SM BR BKN012
     FM161500 34005KT 4SM BR SCT012 BKN025
     FM161600 32006KT P6SM SCT035=



000
FTUS43 KGRR 160300 AAE
TAFAZO
TAF AMD
KAZO 160312Z 1603/1624 VRB03KT 4SM BR OVC007
     FM160400 VRB03KT 2SM BR OVC004
     FM160600 VRB03KT 1/4SM FG OVC004
     FM161400 34004KT 2SM BR BKN012
     FM161500 34005KT 4SM BR SCT012 BKN025
     FM161600 32006KT P6SM SCT035=



000
FTUS43 KGRR 160300 AAB
TAFMKG
TAF AMD
KMKG 160311Z 1603/1624 01003KT P6SM SKC
     FM160400 VRB03KT 4SM BR SKC
     FM160500 VRB03KT 2SM BR SCT004
     FM160700 VRB03KT 1/4SM FG OVC004
     FM161400 34004KT 2SM BR BKN012
     FM161500 34005KT 4SM BR SCT012 BKN025
     FM161600 32006KT P6SM SCT035=



000
FTUS43 KGRR 160300 AAD
TAFBTL
TAF AMD
KBTL 160308Z 1603/1624 VRB03KT 1/4SM FG OVC008
     FM161400 34004KT 2SM BR BKN012
     FM161500 34005KT 4SM BR SCT012 BKN025
     FM161600 32006KT P6SM SCT035=



000
FTUS43 KGRR 160200 AAC
TAFJXN
TAF AMD
KJXN 160204Z 1602/1624 34006KT P6SM BKN015
      TEMPO 1602/1604 SCT015 BKN050
     FM161300 29003KT P6SM SCT035=



000
FTUS43 KGRR 160200 AAC
TAFBTL
TAF AMD
KBTL 160203Z 1602/1624 35004KT P6SM OVC019
     FM161300 29003KT P6SM SCT035=



000
FTUS43 KGRR 160200 AAC
TAFLAN
TAF AMD
KLAN 160203Z 1602/1624 36005KT P6SM BKN016
     FM161300 33005KT P6SM SCT035=



000
FTUS43 KGRR 160200 AAD
TAFAZO
TAF AMD
KAZO 160202Z 1602/1624 VRB03KT P6SM BKN014
     FM161300 29003KT P6SM SCT035=



000
FTUS43 KGRR 160000 AAA
TAFMKG
TAF AMD
KMKG 160044Z 1601/1624 36006KT P6SM FEW007 OVC060
      TEMPO 1601/1602 BKN007
     FM160200 34004KT P6SM SCT025 BKN050
     FM160400 35003KT P6SM SKC
     FM161400 27008KT P6SM SCT040=



000
FTUS43 KGRR 160000 AAB
TAFJXN
TAF AMD
KJXN 160033Z 1601/1624 34006KT P6SM -RA FEW020 OVC040
     FM160300 34004KT P6SM SCT015 OVC050
     FM160700 33003KT 5SM BR SCT025
     FM161300 29003KT P6SM SCT035=



000
FTUS43 KGRR 160000 AAB
TAFLAN
TAF AMD
KLAN 160032Z 1601/1624 36005KT P6SM -RA SCT014 OVC040
     FM160200 33005KT P6SM OVC040
     FM160300 35004KT P6SM OVC050
     FM160600 33005KT P6SM SCT035=



000
FTUS43 KGRR 160000 AAB
TAFBTL
TAF AMD
KBTL 160031Z 1601/1624 26004KT 6SM -SHRA OVC030
     FM160200 34004KT P6SM OVC040
     FM160700 33003KT 5SM BR SCT025
     FM161300 29003KT P6SM SCT035=



000
FTUS43 KGRR 160000 AAC
TAFAZO
TAF AMD
KAZO 160030Z 1601/1624 VRB03KT P6SM OVC040
     FM160700 33003KT 5SM BR SCT025
     FM161300 29003KT P6SM SCT035=



000
FTUS43 KGRR 160000 AAA
TAFJXN
TAF AMD
KJXN 160006Z 1600/1624 34006G15KT P6SM FEW019 BKN029 OVC060
     FM160200 32004KT 4SM -SHRA OVC015
     FM160400 34004KT P6SM SCT015 OVC050
     FM160700 33003KT 5SM BR SCT025
     FM161300 29003KT P6SM SCT035=



000
FTUS43 KGRR 160000 AAA
TAFBTL
TAF AMD
KBTL 160005Z 1600/1624 28007KT P6SM -RA OVC015
      TEMPO 1600/1602 2SM SHRA BR
     FM160200 32004KT 6SM -SHRA OVC025
     FM160300 34004KT P6SM SCT015 OVC050
     FM160700 33003KT 5SM BR SCT025
     FM161300 29003KT P6SM SCT035=



000
FTUS43 KGRR 160000 AAA
TAFLAN
TAF AMD
KLAN 160005Z 1600/1624 36010KT 5SM RA BR SCT014 BKN023 OVC040
      TEMPO 1600/1602 2SM RA BR OVC015
     FM160200 33005KT P6SM -SHRA OVC025
     FM160300 35004KT P6SM OVC050
     FM160600 33005KT P6SM SCT035=



000
FTUS43 KGRR 160000 AAB
TAFAZO
TAF AMD
KAZO 160003Z 1600/1624 00000KT 2SM -RA BR BKN019 OVC024
     FM160100 32004KT 6SM -RA BR SCT025 OVC050
     FM160300 34004KT P6SM SCT015 OVC050
     FM160700 33003KT 5SM BR SCT025
     FM161300 29003KT P6SM SCT035=



000
FTUS43 KGRR 152300 AAA
TAFAZO
TAF AMD
KAZO 152345Z 1600/1624 32010KT 4SM -SHRA OVC015
     FM160300 34004KT P6SM SCT015 OVC050
     FM160700 33003KT 5SM BR SCT025
     FM161300 29003KT P6SM SCT035=



000
FTUS43 KGRR 152300
TAFJXN
TAF
KJXN 152322Z 1600/1624 24003KT P6SM OVC060
     FM160200 32004KT 4SM -SHRA OVC015
     FM160400 34004KT P6SM SCT015 OVC050
     FM160700 33003KT 5SM BR SCT025
     FM161300 29003KT P6SM SCT035=



000
FTUS43 KGRR 152300
TAFGRR
TAF
KGRR 152322Z 1600/1624 35005KT P6SM -RA SCT007 SCT017 OVC060
     FM160100 33005KT P6SM BKN060
     FM160600 34003KT P6SM SKC
     FM161400 28008KT P6SM SCT040=



000
FTUS43 KGRR 152300
TAFMKG
TAF
KMKG 152322Z 1600/1624 36006KT P6SM FEW008 OVC060
     FM160200 34004KT P6SM SCT025 BKN050
     FM160400 35003KT P6SM SKC
     FM161400 27008KT P6SM SCT040=



000
FTUS43 KGRR 152300
TAFLAN
TAF
KLAN 152322Z 1600/1624 28007KT 6SM -RA BR OVC070
     FM160100 33005KT P6SM -SHRA OVC025
     FM160200 35004KT P6SM OVC050
     FM160600 33005KT P6SM SCT035=



000
FTUS43 KGRR 152300
TAFBTL
TAF
KBTL 152322Z 1600/1624 26005KT P6SM -RA BKN027 OVC045
     FM160100 32004KT 4SM -SHRA OVC015
     FM160300 34004KT P6SM SCT015 OVC050
     FM160700 33003KT 5SM BR SCT025
     FM161300 29003KT P6SM SCT035=



000
FTUS43 KGRR 152300
TAFAZO
TAF
KAZO 152322Z 1600/1624 24008KT P6SM -RA FEW024 BKN030 OVC050
     FM160100 32004KT 4SM -SHRA OVC015
     FM160300 34004KT P6SM SCT015 OVC050
     FM160700 33003KT 5SM BR SCT025
     FM161300 29003KT P6SM SCT035=



000
FTUS43 KGRR 152200 AAB
TAFLAN
TAF AMD
KLAN 152214Z 1522/1618 24007KT P6SM -RA OVC080
     FM152300 32004KT 4SM -SHRA OVC012
     FM160100 33005KT P6SM -SHRA OVC025
     FM160200 35004KT P6SM OVC050
     FM160600 33005KT P6SM SCT035=



000
FTUS43 KGRR 152200 AAB
TAFMKG
TAF AMD
KMKG 152212Z 1522/1618 33007KT P6SM -RA BKN007 BKN012 OVC045
     FM152300 34007KT 5SM -SHRA BKN007 OVC012
     FM160000 34007KT P6SM SCT012 BKN035 OVC060
     FM160200 34004KT P6SM SKC=



000
FTUS43 KGRR 152100 AAB
TAFGRR
TAF AMD
KGRR 152159Z 1522/1618 01004KT 3SM -RA BR FEW012 BKN020 OVC050
     FM160000 33006KT P6SM -SHRA OVC035
     FM160300 34003KT P6SM SKC=



000
FTUS43 KGRR 152100 AAA
TAFLAN
TAF AMD
KLAN 152137Z 1522/1618 22009KT P6SM OVC080
      TEMPO 1522/1601 5SM -SHRA BR OVC025
     FM160200 35004KT P6SM OVC050
     FM160600 33005KT P6SM SCT035=



000
FTUS43 KGRR 152100 AAA
TAFGRR
TAF AMD
KGRR 152136Z 1522/1618 30006KT P6SM -SHRA BKN026 OVC060
      TEMPO 1522/1524 5SM -SHRA BR OVC015
     FM160000 33006KT P6SM -SHRA OVC035
     FM160300 34003KT P6SM SKC=



000
FTUS43 KGRR 152100 AAA
TAFMKG
TAF AMD
KMKG 152134Z 1522/1618 35008KT P6SM -RA FEW010 OVC060
      TEMPO 1522/1524 5SM -SHRA BR OVC025
     FM160200 34004KT P6SM SKC=



000
FTUS43 KGRR 151700 RRA
TAFGRR
TAF
KGRR 151745Z 1518/1618 24005KT P6SM -SHRA OVC040
      TEMPO 1520/1524 5SM -SHRA BR OVC025
     FM160300 34003KT P6SM SKC=



000
FTUS43 KGRR 151700 RRA
TAFMKG
TAF
KMKG 151745Z 1518/1618 VRB03KT P6SM -SHRA OVC040
      TEMPO 1519/1523 5SM -SHRA BR OVC025
     FM160200 34004KT P6SM SKC=



000
FTUS43 KGRR 151700 RRA
TAFJXN
TAF
KJXN 151745Z 1518/1618 22008KT P6SM VCSH OVC080
     FM152100 25003KT P6SM -SHRA OVC035
     FM160000 33004KT 5SM -SHRA BR OVC015
     FM160800 33003KT 5SM BR SCT025
     FM161400 29003KT P6SM SCT035=



000
FTUS43 KGRR 151700 RRA
TAFAZO
TAF
KAZO 151745Z 1518/1618 20008KT P6SM VCSH OVC080
     FM152000 25003KT P6SM -SHRA OVC035
     FM160000 33004KT P6SM VCSH OVC015
     FM160700 33003KT 5SM BR SCT025
     FM161300 29003KT P6SM SCT035=



000
FTUS43 KGRR 151700 RRA
TAFBTL
TAF
KBTL 151745Z 1518/1618 22008KT P6SM VCSH OVC080
     FM152000 25003KT P6SM -SHRA OVC035
     FM160000 33004KT P6SM VCSH OVC015
     FM160700 33003KT 5SM BR SCT025
     FM161300 29003KT P6SM SCT035=



000
FTUS43 KGRR 151700 RRA
TAFLAN
TAF
KLAN 151745Z 1518/1618 21006KT P6SM VCSH OVC060
     FM152000 24005KT P6SM -SHRA OVC035
      TEMPO 1520/1524 5SM -SHRA BR OVC025
     FM160600 33005KT P6SM SCT035=



000
FTUS43 KGRR 151500 AAA
TAFGRR
TAF AMD
KGRR 151548Z 1516/1612 21004KT P6SM VCSH OVC080
     FM151700 25006KT P6SM -SHRA OVC040
     FM152100 30007KT 5SM -SHRA BR OVC025
     FM160300 34004KT P6SM SKC=



000
FTUS43 KGRR 151500 AAA
TAFMKG
TAF AMD
KMKG 151543Z 1516/1612 25003KT P6SM -SHRA OVC040
     FM151900 28007KT 5SM -SHRA BR OVC025
     FM152300 32007KT 5SM BR VCSH OVC040
     FM160200 34004KT P6SM SKC=



    US Dept of Commerce
    National Oceanic and Atmospheric Administration
    National Weather Service
    1325 East West Highway
    Silver Spring, MD 20910
    Page Author: NWS Internet Services Team
Disclaimer
Information Quality
Credits
Glossary
Privacy Policy
Freedom of Information Act (FOIA)
About Us
Career Opportunities